Terminal Aerodrome Forecast
Issued by NWS Memphis, TN

Home | Current Version | Previous Version | Text Only | Print | Product List | Glossary On
Versions: 1 2 3 4 5 6 7 8 9 10 11 12 13 14 15 16 17
087
FTUS44 KMEG 061724
TAFJBR
TAF
KJBR 061724Z 0618/0718 33009KT P6SM SCT018 BKN250
     FM062300 01005KT P6SM SCT020 BKN250
      TEMPO 0706/0710 BKN015
     FM071400 04008KT P6SM SCT030 BKN150
      TEMPO 0714/0718 BKN030=

USA.gov is the U.S. government's official web portal to all federal, state and local government web resources and services.